sensor_id;sensor_type;location;lat;lon;timestamp;P1;durP1;ratioP1;P2;durP2;ratioP2
14171;SDS011;7165;52.388;4.928;2022-12-28T00:01:58;10.53;;;6.70;;
14171;SDS011;7165;52.388;4.928;2022-12-28T00:04:24;10.23;;;7.67;;
14171;SDS011;7165;52.388;4.928;2022-12-28T00:06:51;8.17;;;6.93;;
14171;SDS011;7165;52.388;4.928;2022-12-28T00:09:18;8.47;;;6.67;;
14171;SDS011;7165;52.388;4.928;2022-12-28T00:11:46;9.30;;;7.53;;
14171;SDS011;7165;52.388;4.928;2022-12-28T00:14:12;12.20;;;8.07;;
14171;SDS011;7165;52.388;4.928;2022-12-28T00:16:40;9.53;;;7.30;;
14171;SDS011;7165;52.388;4.928;2022-12-28T00:19:09;11.13;;;7.10;;
14171;SDS011;7165;52.388;4.928;2022-12-28T00:21:37;7.33;;;6.63;;
14171;SDS011;7165;52.388;4.928;2022-12-28T00:24:05;11.73;;;6.97;;
14171;SDS011;7165;52.388;4.928;2022-12-28T00:26:33;9.73;;;7.60;;
14171;SDS011;7165;52.388;4.928;2022-12-28T00:29:02;8.47;;;6.90;;
14171;SDS011;7165;52.388;4.928;2022-12-28T00:31:29;7.80;;;6.57;;
14171;SDS011;7165;52.388;4.928;2022-12-28T00:33:55;9.17;;;7.97;;
14171;SDS011;7165;52.388;4.928;2022-12-28T00:36:22;8.63;;;7.50;;
14171;SDS011;7165;52.388;4.928;2022-12-28T00:38:49;11.13;;;7.80;;
14171;SDS011;7165;52.388;4.928;2022-12-28T00:41:16;8.40;;;7.57;;
14171;SDS011;7165;52.388;4.928;2022-12-28T00:43:42;10.77;;;8.23;;
14171;SDS011;7165;52.388;4.928;2022-12-28T00:46:11;7.43;;;6.70;;
14171;SDS011;7165;52.388;4.928;2022-12-28T00:48:38;9.77;;;8.00;;
14171;SDS011;7165;52.388;4.928;2022-12-28T00:51:06;8.57;;;7.63;;
14171;SDS011;7165;52.388;4.928;2022-12-28T00:53:36;8.57;;;6.97;;
14171;SDS011;7165;52.388;4.928;2022-12-28T00:56:03;8.87;;;7.77;;
14171;SDS011;7165;52.388;4.928;2022-12-28T00:58:31;9.57;;;8.17;;
14171;SDS011;7165;52.388;4.928;2022-12-28T01:00:57;9.43;;;8.07;;
14171;SDS011;7165;52.388;4.928;2022-12-28T01:03:26;10.93;;;8.07;;
14171;SDS011;7165;52.388;4.928;2022-12-28T01:05:52;11.50;;;7.73;;
14171;SDS011;7165;52.388;4.928;2022-12-28T01:08:19;10.50;;;8.37;;
14171;SDS011;7165;52.388;4.928;2022-12-28T01:10:46;9.83;;;8.33;;
14171;SDS011;7165;52.388;4.928;2022-12-28T01:13:13;9.87;;;8.10;;
14171;SDS011;7165;52.388;4.928;2022-12-28T01:15:40;9.17;;;8.00;;
14171;SDS011;7165;52.388;4.928;2022-12-28T01:18:07;11.53;;;7.67;;
14171;SDS011;7165;52.388;4.928;2022-12-28T01:20:37;12.33;;;9.97;;
14171;SDS011;7165;52.388;4.928;2022-12-28T01:23:04;9.73;;;8.77;;
14171;SDS011;7165;52.388;4.928;2022-12-28T01:25:31;11.57;;;9.00;;
14171;SDS011;7165;52.388;4.928;2022-12-28T01:27:57;9.73;;;8.77;;
14171;SDS011;7165;52.388;4.928;2022-12-28T01:30:24;9.20;;;8.40;;
14171;SDS011;7165;52.388;4.928;2022-12-28T01:32:51;10.97;;;9.47;;
14171;SDS011;7165;52.388;4.928;2022-12-28T01:35:17;11.07;;;9.27;;
14171;SDS011;7165;52.388;4.928;2022-12-28T01:37:45;13.05;;;9.40;;
14171;SDS011;7165;52.388;4.928;2022-12-28T01:40:13;10.80;;;8.88;;
14171;SDS011;7165;52.388;4.928;2022-12-28T01:42:40;9.90;;;8.75;;
14171;SDS011;7165;52.388;4.928;2022-12-28T01:45:17;9.33;;;8.43;;
14171;SDS011;7165;52.388;4.928;2022-12-28T01:47:45;10.02;;;8.43;;
14171;SDS011;7165;52.388;4.928;2022-12-28T01:50:16;9.40;;;8.47;;
14171;SDS011;7165;52.388;4.928;2022-12-28T01:52:47;9.80;;;7.97;;
14171;SDS011;7165;52.388;4.928;2022-12-28T01:55:18;10.52;;;8.32;;
14171;SDS011;7165;52.388;4.928;2022-12-28T01:57:47;9.43;;;8.32;;
14171;SDS011;7165;52.388;4.928;2022-12-28T02:00:18;11.73;;;8.73;;
14171;SDS011;7165;52.388;4.928;2022-12-28T02:02:46;8.47;;;7.67;;
14171;SDS011;7165;52.388;4.928;2022-12-28T02:05:17;9.60;;;8.40;;
14171;SDS011;7165;52.388;4.928;2022-12-28T02:07:49;9.68;;;8.48;;
14171;SDS011;7165;52.388;4.928;2022-12-28T02:10:19;11.20;;;9.10;;
14171;SDS011;7165;52.388;4.928;2022-12-28T02:12:47;9.50;;;8.60;;
14171;SDS011;7165;52.388;4.928;2022-12-28T02:15:14;9.38;;;8.48;;
14171;SDS011;7165;52.388;4.928;2022-12-28T02:17:41;9.57;;;8.50;;
14171;SDS011;7165;52.388;4.928;2022-12-28T02:20:08;9.60;;;8.55;;
14171;SDS011;7165;52.388;4.928;2022-12-28T02:25:41;10.15;;;8.70;;
14171;SDS011;7165;52.388;4.928;2022-12-28T02:28:48;9.30;;;8.35;;
14171;SDS011;7165;52.388;4.928;2022-12-28T02:31:47;9.52;;;8.63;;
14171;SDS011;7165;52.388;4.928;2022-12-28T02:34:22;9.13;;;8.17;;
14171;SDS011;7165;52.388;4.928;2022-12-28T02:36:53;11.60;;;8.45;;
14171;SDS011;7165;52.388;4.928;2022-12-28T02:39:27;8.85;;;8.05;;
14171;SDS011;7165;52.388;4.928;2022-12-28T02:41:57;9.37;;;8.37;;
14171;SDS011;7165;52.388;4.928;2022-12-28T02:44:26;9.53;;;8.53;;
14171;SDS011;7165;52.388;4.928;2022-12-28T02:47:11;10.37;;;7.67;;
14171;SDS011;7165;52.388;4.928;2022-12-28T02:49:58;9.55;;;8.25;;
14171;SDS011;7165;52.388;4.928;2022-12-28T02:52:34;9.40;;;8.47;;
14171;SDS011;7165;52.388;4.928;2022-12-28T02:55:15;9.35;;;8.38;;
14171;SDS011;7165;52.388;4.928;2022-12-28T03:01:03;8.75;;;7.85;;
14171;SDS011;7165;52.388;4.928;2022-12-28T03:03:45;8.53;;;7.77;;
14171;SDS011;7165;52.388;4.928;2022-12-28T03:06:22;9.20;;;7.90;;
14171;SDS011;7165;52.388;4.928;2022-12-28T03:09:16;8.50;;;7.65;;
14171;SDS011;7165;52.388;4.928;2022-12-28T03:11:52;10.45;;;9.23;;
14171;SDS011;7165;52.388;4.928;2022-12-28T03:14:22;12.23;;;9.00;;
14171;SDS011;7165;52.388;4.928;2022-12-28T03:16:55;9.32;;;8.40;;
14171;SDS011;7165;52.388;4.928;2022-12-28T03:19:43;9.18;;;8.43;;
14171;SDS011;7165;52.388;4.928;2022-12-28T03:22:33;10.02;;;9.13;;
14171;SDS011;7165;52.388;4.928;2022-12-28T03:25:20;9.77;;;8.98;;
14171;SDS011;7165;52.388;4.928;2022-12-28T03:28:06;9.55;;;8.68;;
14171;SDS011;7165;52.388;4.928;2022-12-28T03:30:55;9.95;;;9.02;;
14171;SDS011;7165;52.388;4.928;2022-12-28T03:33:30;10.48;;;9.52;;
14171;SDS011;7165;52.388;4.928;2022-12-28T03:35:59;9.80;;;8.98;;
14171;SDS011;7165;52.388;4.928;2022-12-28T03:38:34;9.73;;;9.02;;
14171;SDS011;7165;52.388;4.928;2022-12-28T03:41:13;9.70;;;8.80;;
14171;SDS011;7165;52.388;4.928;2022-12-28T03:43:44;8.87;;;8.10;;
14171;SDS011;7165;52.388;4.928;2022-12-28T03:46:15;10.18;;;9.38;;
14171;SDS011;7165;52.388;4.928;2022-12-28T03:48:46;9.55;;;8.65;;
14171;SDS011;7165;52.388;4.928;2022-12-28T03:51:15;10.10;;;9.25;;
14171;SDS011;7165;52.388;4.928;2022-12-28T03:53:46;9.82;;;8.77;;
14171;SDS011;7165;52.388;4.928;2022-12-28T03:56:14;10.57;;;9.48;;
14171;SDS011;7165;52.388;4.928;2022-12-28T03:58:42;9.75;;;8.95;;
14171;SDS011;7165;52.388;4.928;2022-12-28T04:01:09;12.73;;;10.30;;
14171;SDS011;7165;52.388;4.928;2022-12-28T04:03:36;10.73;;;9.68;;
14171;SDS011;7165;52.388;4.928;2022-12-28T04:06:05;9.43;;;8.55;;
14171;SDS011;7165;52.388;4.928;2022-12-28T04:08:32;9.57;;;8.70;;
14171;SDS011;7165;52.388;4.928;2022-12-28T04:10:59;9.93;;;8.55;;
14171;SDS011;7165;52.388;4.928;2022-12-28T04:13:27;9.32;;;8.55;;
14171;SDS011;7165;52.388;4.928;2022-12-28T04:15:56;10.20;;;9.27;;
14171;SDS011;7165;52.388;4.928;2022-12-28T04:18:24;8.43;;;7.82;;
14171;SDS011;7165;52.388;4.928;2022-12-28T04:20:51;9.40;;;8.50;;
14171;SDS011;7165;52.388;4.928;2022-12-28T04:23:19;8.85;;;8.05;;
14171;SDS011;7165;52.388;4.928;2022-12-28T04:25:54;9.05;;;8.15;;
14171;SDS011;7165;52.388;4.928;2022-12-28T04:28:22;8.65;;;7.95;;
14171;SDS011;7165;52.388;4.928;2022-12-28T04:30:49;8.70;;;8.00;;
14171;SDS011;7165;52.388;4.928;2022-12-28T04:33:16;9.20;;;8.13;;
14171;SDS011;7165;52.388;4.928;2022-12-28T04:35:43;10.13;;;7.63;;
14171;SDS011;7165;52.388;4.928;2022-12-28T04:38:09;7.57;;;6.97;;
14171;SDS011;7165;52.388;4.928;2022-12-28T04:40:37;6.97;;;6.47;;
14171;SDS011;7165;52.388;4.928;2022-12-28T04:43:04;7.70;;;7.10;;
14171;SDS011;7165;52.388;4.928;2022-12-28T04:45:31;7.90;;;7.20;;
14171;SDS011;7165;52.388;4.928;2022-12-28T04:47:58;11.15;;;7.38;;
14171;SDS011;7165;52.388;4.928;2022-12-28T04:50:25;8.13;;;7.43;;
14171;SDS011;7165;52.388;4.928;2022-12-28T04:52:52;7.32;;;6.68;;
14171;SDS011;7165;52.388;4.928;2022-12-28T04:55:18;7.72;;;7.10;;
14171;SDS011;7165;52.388;4.928;2022-12-28T04:57:46;7.13;;;6.53;;
14171;SDS011;7165;52.388;4.928;2022-12-28T05:00:13;7.10;;;6.40;;
14171;SDS011;7165;52.388;4.928;2022-12-28T05:02:40;6.65;;;6.13;;
14171;SDS011;7165;52.388;4.928;2022-12-28T05:05:07;7.93;;;7.15;;
14171;SDS011;7165;52.388;4.928;2022-12-28T05:07:34;7.85;;;7.00;;
14171;SDS011;7165;52.388;4.928;2022-12-28T05:10:01;10.30;;;7.07;;
14171;SDS011;7165;52.388;4.928;2022-12-28T05:12:27;7.38;;;6.40;;
14171;SDS011;7165;52.388;4.928;2022-12-28T05:14:55;6.93;;;6.43;;
14171;SDS011;7165;52.388;4.928;2022-12-28T05:17:22;7.53;;;6.82;;
14171;SDS011;7165;52.388;4.928;2022-12-28T05:19:49;8.55;;;6.60;;
14171;SDS011;7165;52.388;4.928;2022-12-28T05:22:15;6.90;;;6.30;;
14171;SDS011;7165;52.388;4.928;2022-12-28T05:24:42;7.47;;;6.78;;
14171;SDS011;7165;52.388;4.928;2022-12-28T05:27:09;6.53;;;5.95;;
14171;SDS011;7165;52.388;4.928;2022-12-28T05:29:35;7.07;;;6.38;;
14171;SDS011;7165;52.388;4.928;2022-12-28T05:32:04;7.70;;;7.07;;
14171;SDS011;7165;52.388;4.928;2022-12-28T05:34:31;7.50;;;6.80;;
14171;SDS011;7165;52.388;4.928;2022-12-28T05:36:57;7.75;;;6.38;;
14171;SDS011;7165;52.388;4.928;2022-12-28T05:39:24;7.40;;;6.72;;
14171;SDS011;7165;52.388;4.928;2022-12-28T05:41:51;6.97;;;6.40;;
14171;SDS011;7165;52.388;4.928;2022-12-28T05:44:17;7.13;;;6.43;;
14171;SDS011;7165;52.388;4.928;2022-12-28T05:46:44;7.53;;;6.85;;
14171;SDS011;7165;52.388;4.928;2022-12-28T05:49:12;7.78;;;7.15;;
14171;SDS011;7165;52.388;4.928;2022-12-28T05:51:39;6.88;;;6.28;;
14171;SDS011;7165;52.388;4.928;2022-12-28T05:54:05;7.03;;;6.18;;
14171;SDS011;7165;52.388;4.928;2022-12-28T05:56:32;7.70;;;6.97;;
14171;SDS011;7165;52.388;4.928;2022-12-28T05:58:59;7.55;;;6.95;;
14171;SDS011;7165;52.388;4.928;2022-12-28T06:01:28;7.15;;;6.63;;
14171;SDS011;7165;52.388;4.928;2022-12-28T06:03:57;8.07;;;7.35;;
14171;SDS011;7165;52.388;4.928;2022-12-28T06:06:27;7.00;;;6.30;;
14171;SDS011;7165;52.388;4.928;2022-12-28T06:08:54;7.32;;;6.80;;
14171;SDS011;7165;52.388;4.928;2022-12-28T06:11:21;7.68;;;6.95;;
14171;SDS011;7165;52.388;4.928;2022-12-28T06:13:49;7.50;;;6.78;;
14171;SDS011;7165;52.388;4.928;2022-12-28T06:16:18;8.13;;;7.30;;
14171;SDS011;7165;52.388;4.928;2022-12-28T06:18:45;7.03;;;6.53;;
14171;SDS011;7165;52.388;4.928;2022-12-28T06:21:14;7.88;;;7.28;;
14171;SDS011;7165;52.388;4.928;2022-12-28T06:23:43;6.68;;;6.18;;
14171;SDS011;7165;52.388;4.928;2022-12-28T06:26:11;7.53;;;6.82;;
14171;SDS011;7165;52.388;4.928;2022-12-28T06:28:39;7.00;;;6.40;;
14171;SDS011;7165;52.388;4.928;2022-12-28T06:31:09;6.57;;;6.07;;
14171;SDS011;7165;52.388;4.928;2022-12-28T06:33:37;7.07;;;6.47;;
14171;SDS011;7165;52.388;4.928;2022-12-28T06:36:08;6.53;;;5.95;;
14171;SDS011;7165;52.388;4.928;2022-12-28T06:38:37;8.38;;;6.82;;
14171;SDS011;7165;52.388;4.928;2022-12-28T06:41:05;7.95;;;7.20;;
14171;SDS011;7165;52.388;4.928;2022-12-28T06:43:33;8.25;;;7.40;;
14171;SDS011;7165;52.388;4.928;2022-12-28T06:46:01;8.57;;;7.88;;
14171;SDS011;7165;52.388;4.928;2022-12-28T06:48:29;8.23;;;7.57;;
14171;SDS011;7165;52.388;4.928;2022-12-28T06:50:57;8.80;;;8.13;;
14171;SDS011;7165;52.388;4.928;2022-12-28T06:53:26;8.15;;;7.43;;
14171;SDS011;7165;52.388;4.928;2022-12-28T06:55:54;8.50;;;7.70;;
14171;SDS011;7165;52.388;4.928;2022-12-28T06:58:22;8.15;;;7.38;;
14171;SDS011;7165;52.388;4.928;2022-12-28T07:00:50;8.10;;;7.40;;
14171;SDS011;7165;52.388;4.928;2022-12-28T07:03:17;9.32;;;8.05;;
14171;SDS011;7165;52.388;4.928;2022-12-28T07:05:43;8.30;;;7.60;;
14171;SDS011;7165;52.388;4.928;2022-12-28T07:08:10;8.75;;;7.97;;
14171;SDS011;7165;52.388;4.928;2022-12-28T07:10:37;8.75;;;8.07;;
14171;SDS011;7165;52.388;4.928;2022-12-28T07:13:05;7.93;;;7.35;;
14171;SDS011;7165;52.388;4.928;2022-12-28T07:15:34;9.90;;;8.45;;
14171;SDS011;7165;52.388;4.928;2022-12-28T07:18:01;8.48;;;7.68;;
14171;SDS011;7165;52.388;4.928;2022-12-28T07:20:28;11.35;;;8.80;;
14171;SDS011;7165;52.388;4.928;2022-12-28T07:22:55;8.80;;;7.93;;
14171;SDS011;7165;52.388;4.928;2022-12-28T07:25:21;9.18;;;8.35;;
14171;SDS011;7165;52.388;4.928;2022-12-28T07:27:48;9.18;;;8.30;;
14171;SDS011;7165;52.388;4.928;2022-12-28T07:30:15;10.20;;;8.32;;
14171;SDS011;7165;52.388;4.928;2022-12-28T07:32:43;8.82;;;7.90;;
14171;SDS011;7165;52.388;4.928;2022-12-28T07:35:10;7.80;;;7.10;;
14171;SDS011;7165;52.388;4.928;2022-12-28T07:57:10;9.45;;;8.50;;
14171;SDS011;7165;52.388;4.928;2022-12-28T07:59:37;9.38;;;8.27;;
14171;SDS011;7165;52.388;4.928;2022-12-28T08:02:04;9.85;;;9.05;;
14171;SDS011;7165;52.388;4.928;2022-12-28T08:04:30;8.93;;;8.13;;
14171;SDS011;7165;52.388;4.928;2022-12-28T08:06:58;9.38;;;8.55;;
14171;SDS011;7165;52.388;4.928;2022-12-28T08:09:25;8.45;;;7.75;;
14171;SDS011;7165;52.388;4.928;2022-12-28T08:11:52;9.82;;;9.02;;
14171;SDS011;7165;52.388;4.928;2022-12-28T08:14:18;9.00;;;8.13;;
14171;SDS011;7165;52.388;4.928;2022-12-28T08:16:45;9.70;;;8.40;;
14171;SDS011;7165;52.388;4.928;2022-12-28T08:19:12;8.90;;;8.13;;
14171;SDS011;7165;52.388;4.928;2022-12-28T08:21:39;8.93;;;8.07;;
14171;SDS011;7165;52.388;4.928;2022-12-28T08:24:11;8.65;;;7.82;;
14171;SDS011;7165;52.388;4.928;2022-12-28T08:26:40;8.60;;;8.00;;
14171;SDS011;7165;52.388;4.928;2022-12-28T08:29:08;9.52;;;8.63;;
14171;SDS011;7165;52.388;4.928;2022-12-28T08:31:37;9.55;;;8.70;;
14171;SDS011;7165;52.388;4.928;2022-12-28T08:34:06;8.85;;;8.05;;
14171;SDS011;7165;52.388;4.928;2022-12-28T08:36:34;8.82;;;7.80;;
14171;SDS011;7165;52.388;4.928;2022-12-28T08:39:01;11.00;;;9.75;;
14171;SDS011;7165;52.388;4.928;2022-12-28T08:41:30;8.80;;;7.93;;
14171;SDS011;7165;52.388;4.928;2022-12-28T08:43:57;8.68;;;7.82;;
14171;SDS011;7165;52.388;4.928;2022-12-28T08:46:24;8.98;;;7.82;;
14171;SDS011;7165;52.388;4.928;2022-12-28T08:48:53;9.52;;;8.73;;
14171;SDS011;7165;52.388;4.928;2022-12-28T08:51:22;8.13;;;7.22;;
14171;SDS011;7165;52.388;4.928;2022-12-28T08:53:50;7.63;;;6.82;;
14171;SDS011;7165;52.388;4.928;2022-12-28T08:56:17;7.55;;;6.93;;
14171;SDS011;7165;52.388;4.928;2022-12-28T08:58:48;8.75;;;7.90;;
14171;SDS011;7165;52.388;4.928;2022-12-28T09:01:15;8.65;;;7.32;;
14171;SDS011;7165;52.388;4.928;2022-12-28T09:03:44;9.57;;;7.82;;
14171;SDS011;7165;52.388;4.928;2022-12-28T09:06:13;8.85;;;7.03;;
14171;SDS011;7165;52.388;4.928;2022-12-28T09:08:41;6.82;;;6.25;;
14171;SDS011;7165;52.388;4.928;2022-12-28T09:11:09;7.45;;;6.82;;
14171;SDS011;7165;52.388;4.928;2022-12-28T09:13:37;7.05;;;6.45;;
14171;SDS011;7165;52.388;4.928;2022-12-28T09:16:07;8.52;;;7.30;;
14171;SDS011;7165;52.388;4.928;2022-12-28T09:18:35;7.65;;;6.97;;
14171;SDS011;7165;52.388;4.928;2022-12-28T09:21:05;7.90;;;7.05;;
14171;SDS011;7165;52.388;4.928;2022-12-28T09:23:33;7.63;;;7.03;;
14171;SDS011;7165;52.388;4.928;2022-12-28T09:26:02;9.02;;;7.75;;
14171;SDS011;7165;52.388;4.928;2022-12-28T09:28:30;7.43;;;6.88;;
14171;SDS011;7165;52.388;4.928;2022-12-28T09:30:57;7.70;;;7.10;;
14171;SDS011;7165;52.388;4.928;2022-12-28T09:33:25;8.70;;;7.85;;
14171;SDS011;7165;52.388;4.928;2022-12-28T09:36:09;8.05;;;7.25;;
14171;SDS011;7165;52.388;4.928;2022-12-28T09:38:35;8.60;;;7.63;;
14171;SDS011;7165;52.388;4.928;2022-12-28T09:41:08;7.43;;;6.93;;
14171;SDS011;7165;52.388;4.928;2022-12-28T09:43:38;9.63;;;8.07;;
14171;SDS011;7165;52.388;4.928;2022-12-28T09:46:06;8.57;;;7.88;;
14171;SDS011;7165;52.388;4.928;2022-12-28T09:48:35;8.73;;;8.02;;
14171;SDS011;7165;52.388;4.928;2022-12-28T09:51:04;9.30;;;8.50;;
14171;SDS011;7165;52.388;4.928;2022-12-28T09:53:31;9.70;;;8.77;;
14171;SDS011;7165;52.388;4.928;2022-12-28T09:56:01;8.50;;;7.97;;
14171;SDS011;7165;52.388;4.928;2022-12-28T09:58:31;9.40;;;8.38;;
14171;SDS011;7165;52.388;4.928;2022-12-28T10:01:01;9.65;;;8.95;;
14171;SDS011;7165;52.388;4.928;2022-12-28T10:03:34;9.80;;;8.90;;
14171;SDS011;7165;52.388;4.928;2022-12-28T10:06:07;9.80;;;9.10;;
14171;SDS011;7165;52.388;4.928;2022-12-28T10:08:37;9.90;;;8.98;;
14171;SDS011;7165;52.388;4.928;2022-12-28T10:11:07;10.45;;;9.55;;
14171;SDS011;7165;52.388;4.928;2022-12-28T10:13:36;10.27;;;9.40;;
14171;SDS011;7165;52.388;4.928;2022-12-28T10:16:04;10.15;;;9.35;;
14171;SDS011;7165;52.388;4.928;2022-12-28T10:18:39;9.43;;;8.75;;
14171;SDS011;7165;52.388;4.928;2022-12-28T10:21:05;11.20;;;10.15;;
14171;SDS011;7165;52.388;4.928;2022-12-28T10:23:32;10.38;;;9.60;;
14171;SDS011;7165;52.388;4.928;2022-12-28T10:26:01;11.40;;;10.50;;
14171;SDS011;7165;52.388;4.928;2022-12-28T10:28:32;11.07;;;10.18;;
14171;SDS011;7165;52.388;4.928;2022-12-28T10:31:08;13.63;;;10.93;;
14171;SDS011;7165;52.388;4.928;2022-12-28T10:33:36;11.13;;;10.20;;
14171;SDS011;7165;52.388;4.928;2022-12-28T10:36:09;10.20;;;9.20;;
14171;SDS011;7165;52.388;4.928;2022-12-28T10:38:38;10.35;;;9.35;;
14171;SDS011;7165;52.388;4.928;2022-12-28T10:41:08;10.13;;;9.27;;
14171;SDS011;7165;52.388;4.928;2022-12-28T10:43:38;9.70;;;8.82;;
14171;SDS011;7165;52.388;4.928;2022-12-28T10:46:11;9.55;;;8.65;;
14171;SDS011;7165;52.388;4.928;2022-12-28T10:48:43;10.10;;;9.20;;
14171;SDS011;7165;52.388;4.928;2022-12-28T10:51:13;9.27;;;8.52;;
14171;SDS011;7165;52.388;4.928;2022-12-28T10:53:42;9.32;;;8.48;;
14171;SDS011;7165;52.388;4.928;2022-12-28T10:56:17;17.20;;;8.63;;
14171;SDS011;7165;52.388;4.928;2022-12-28T10:58:49;8.77;;;8.13;;
14171;SDS011;7165;52.388;4.928;2022-12-28T11:01:17;10.43;;;8.02;;
14171;SDS011;7165;52.388;4.928;2022-12-28T11:03:58;8.55;;;7.78;;
14171;SDS011;7165;52.388;4.928;2022-12-28T11:06:29;8.20;;;7.50;;
14171;SDS011;7165;52.388;4.928;2022-12-28T11:11:45;9.57;;;8.43;;
14171;SDS011;7165;52.388;4.928;2022-12-28T11:14:24;9.23;;;8.45;;
14171;SDS011;7165;52.388;4.928;2022-12-28T11:16:55;13.25;;;11.50;;
14171;SDS011;7165;52.388;4.928;2022-12-28T11:19:24;14.00;;;12.70;;
14171;SDS011;7165;52.388;4.928;2022-12-28T11:21:51;8.68;;;7.97;;
14171;SDS011;7165;52.388;4.928;2022-12-28T11:24:18;9.60;;;8.88;;
14171;SDS011;7165;52.388;4.928;2022-12-28T11:26:50;9.20;;;8.32;;
14171;SDS011;7165;52.388;4.928;2022-12-28T11:29:18;9.57;;;8.77;;
14171;SDS011;7165;52.388;4.928;2022-12-28T11:31:46;9.32;;;8.52;;
14171;SDS011;7165;52.388;4.928;2022-12-28T11:34:19;8.77;;;8.07;;
14171;SDS011;7165;52.388;4.928;2022-12-28T11:36:52;8.55;;;7.85;;
14171;SDS011;7165;52.388;4.928;2022-12-28T11:39:28;8.48;;;7.88;;
14171;SDS011;7165;52.388;4.928;2022-12-28T11:42:07;7.95;;;7.30;;
14171;SDS011;7165;52.388;4.928;2022-12-28T11:44:47;8.13;;;7.40;;
14171;SDS011;7165;52.388;4.928;2022-12-28T11:47:19;7.43;;;6.85;;
14171;SDS011;7165;52.388;4.928;2022-12-28T11:49:51;6.78;;;6.18;;
14171;SDS011;7165;52.388;4.928;2022-12-28T11:58:32;6.07;;;5.55;;
14171;SDS011;7165;52.388;4.928;2022-12-28T12:04:07;5.72;;;5.28;;
14171;SDS011;7165;52.388;4.928;2022-12-28T12:13:01;5.40;;;4.50;;
14171;SDS011;7165;52.388;4.928;2022-12-28T12:15:43;4.57;;;4.18;;
14171;SDS011;7165;52.388;4.928;2022-12-28T12:18:13;6.72;;;4.90;;
14171;SDS011;7165;52.388;4.928;2022-12-28T12:20:51;4.95;;;4.45;;
14171;SDS011;7165;52.388;4.928;2022-12-28T12:23:25;4.55;;;4.15;;
14171;SDS011;7165;52.388;4.928;2022-12-28T12:25:57;4.57;;;4.28;;
14171;SDS011;7165;52.388;4.928;2022-12-28T12:28:35;5.90;;;4.65;;
14171;SDS011;7165;52.388;4.928;2022-12-28T12:31:06;4.78;;;3.65;;
14171;SDS011;7165;52.388;4.928;2022-12-28T12:33:39;6.38;;;3.88;;
14171;SDS011;7165;52.388;4.928;2022-12-28T12:36:16;4.00;;;3.60;;
14171;SDS011;7165;52.388;4.928;2022-12-28T12:39:13;4.43;;;4.03;;
14171;SDS011;7165;52.388;4.928;2022-12-28T12:41:49;4.45;;;4.05;;
14171;SDS011;7165;52.388;4.928;2022-12-28T12:44:28;5.95;;;4.78;;
14171;SDS011;7165;52.388;4.928;2022-12-28T12:47:12;7.00;;;4.05;;
14171;SDS011;7165;52.388;4.928;2022-12-28T12:52:50;6.95;;;4.97;;
14171;SDS011;7165;52.388;4.928;2022-12-28T12:55:22;5.38;;;4.72;;
14171;SDS011;7165;52.388;4.928;2022-12-28T12:58:07;6.50;;;5.03;;
14171;SDS011;7165;52.388;4.928;2022-12-28T13:00:42;7.65;;;4.68;;
14171;SDS011;7165;52.388;4.928;2022-12-28T13:03:20;6.07;;;4.60;;
14171;SDS011;7165;52.388;4.928;2022-12-28T13:05:57;6.43;;;4.82;;
14171;SDS011;7165;52.388;4.928;2022-12-28T13:08:24;6.38;;;4.68;;
14171;SDS011;7165;52.388;4.928;2022-12-28T13:10:52;6.53;;;4.90;;
14171;SDS011;7165;52.388;4.928;2022-12-28T13:13:30;8.23;;;4.53;;
14171;SDS011;7165;52.388;4.928;2022-12-28T13:16:02;5.30;;;4.78;;
14171;SDS011;7165;52.388;4.928;2022-12-28T13:18:33;7.57;;;5.10;;
14171;SDS011;7165;52.388;4.928;2022-12-28T13:21:00;8.10;;;5.22;;
14171;SDS011;7165;52.388;4.928;2022-12-28T13:23:29;8.85;;;5.15;;
14171;SDS011;7165;52.388;4.928;2022-12-28T13:25:58;6.50;;;4.93;;
14171;SDS011;7165;52.388;4.928;2022-12-28T13:28:26;11.70;;;5.82;;
14171;SDS011;7165;52.388;4.928;2022-12-28T13:30:56;9.15;;;6.20;;
14171;SDS011;7165;52.388;4.928;2022-12-28T13:33:27;7.25;;;5.18;;
14171;SDS011;7165;52.388;4.928;2022-12-28T13:36:11;9.23;;;5.03;;
14171;SDS011;7165;52.388;4.928;2022-12-28T13:38:39;7.95;;;5.03;;
14171;SDS011;7165;52.388;4.928;2022-12-28T13:41:06;8.30;;;4.65;;
14171;SDS011;7165;52.388;4.928;2022-12-28T13:43:56;8.48;;;4.45;;
14171;SDS011;7165;52.388;4.928;2022-12-28T13:46:38;8.90;;;4.97;;
14171;SDS011;7165;52.388;4.928;2022-12-28T13:49:09;9.48;;;4.35;;
14171;SDS011;7165;52.388;4.928;2022-12-28T13:51:37;7.55;;;4.40;;
14171;SDS011;7165;52.388;4.928;2022-12-28T13:54:06;5.97;;;4.80;;
14171;SDS011;7165;52.388;4.928;2022-12-28T13:56:34;7.63;;;5.07;;
14171;SDS011;7165;52.388;4.928;2022-12-28T13:59:05;7.38;;;4.68;;
14171;SDS011;7165;52.388;4.928;2022-12-28T14:01:34;9.38;;;4.75;;
14171;SDS011;7165;52.388;4.928;2022-12-28T14:04:04;7.88;;;4.90;;
14171;SDS011;7165;52.388;4.928;2022-12-28T14:06:34;9.25;;;4.85;;
14171;SDS011;7165;52.388;4.928;2022-12-28T14:09:01;7.22;;;4.85;;
14171;SDS011;7165;52.388;4.928;2022-12-28T14:11:28;7.68;;;5.20;;
14171;SDS011;7165;52.388;4.928;2022-12-28T14:13:55;12.63;;;5.18;;
14171;SDS011;7165;52.388;4.928;2022-12-28T14:16:23;9.40;;;5.07;;
14171;SDS011;7165;52.388;4.928;2022-12-28T14:18:50;11.80;;;5.25;;
14171;SDS011;7165;52.388;4.928;2022-12-28T14:21:29;9.98;;;5.22;;
14171;SDS011;7165;52.388;4.928;2022-12-28T14:24:02;7.05;;;4.95;;
14171;SDS011;7165;52.388;4.928;2022-12-28T14:26:31;10.57;;;6.15;;
14171;SDS011;7165;52.388;4.928;2022-12-28T14:28:59;5.90;;;5.00;;
14171;SDS011;7165;52.388;4.928;2022-12-28T14:31:27;4.80;;;4.25;;
14171;SDS011;7165;52.388;4.928;2022-12-28T14:33:56;7.53;;;4.57;;
14171;SDS011;7165;52.388;4.928;2022-12-28T14:36:25;12.18;;;5.13;;
14171;SDS011;7165;52.388;4.928;2022-12-28T14:38:55;10.35;;;4.30;;
14171;SDS011;7165;52.388;4.928;2022-12-28T14:41:27;6.90;;;4.90;;
14171;SDS011;7165;52.388;4.928;2022-12-28T14:43:55;10.10;;;4.35;;
14171;SDS011;7165;52.388;4.928;2022-12-28T14:46:30;12.57;;;4.72;;
14171;SDS011;7165;52.388;4.928;2022-12-28T14:48:58;7.38;;;4.45;;
14171;SDS011;7165;52.388;4.928;2022-12-28T14:51:27;6.75;;;4.60;;
14171;SDS011;7165;52.388;4.928;2022-12-28T14:54:08;5.75;;;4.30;;
14171;SDS011;7165;52.388;4.928;2022-12-28T14:56:42;6.38;;;5.13;;
14171;SDS011;7165;52.388;4.928;2022-12-28T14:59:12;8.90;;;4.93;;
14171;SDS011;7165;52.388;4.928;2022-12-28T15:01:45;8.35;;;4.25;;
14171;SDS011;7165;52.388;4.928;2022-12-28T15:04:23;6.47;;;5.20;;
14171;SDS011;7165;52.388;4.928;2022-12-28T15:06:59;7.60;;;4.57;;
14171;SDS011;7165;52.388;4.928;2022-12-28T15:09:26;9.15;;;4.32;;
14171;SDS011;7165;52.388;4.928;2022-12-28T15:12:06;5.13;;;3.90;;
14171;SDS011;7165;52.388;4.928;2022-12-28T15:14:37;9.02;;;4.75;;
14171;SDS011;7165;52.388;4.928;2022-12-28T15:17:04;8.15;;;4.53;;
14171;SDS011;7165;52.388;4.928;2022-12-28T15:19:31;7.90;;;5.68;;
14171;SDS011;7165;52.388;4.928;2022-12-28T15:21:58;9.32;;;4.80;;
14171;SDS011;7165;52.388;4.928;2022-12-28T15:24:25;5.97;;;4.38;;
14171;SDS011;7165;52.388;4.928;2022-12-28T15:26:52;8.95;;;4.85;;
14171;SDS011;7165;52.388;4.928;2022-12-28T15:29:20;6.70;;;4.55;;
14171;SDS011;7165;52.388;4.928;2022-12-28T15:31:47;10.13;;;4.95;;
14171;SDS011;7165;52.388;4.928;2022-12-28T15:34:13;9.90;;;5.03;;
14171;SDS011;7165;52.388;4.928;2022-12-28T15:36:40;6.07;;;4.20;;
14171;SDS011;7165;52.388;4.928;2022-12-28T15:39:10;6.50;;;4.55;;
14171;SDS011;7165;52.388;4.928;2022-12-28T15:41:37;5.82;;;5.20;;
14171;SDS011;7165;52.388;4.928;2022-12-28T15:44:13;9.95;;;4.82;;
14171;SDS011;7165;52.388;4.928;2022-12-28T15:46:42;10.10;;;5.00;;
14171;SDS011;7165;52.388;4.928;2022-12-28T15:49:09;8.13;;;5.38;;
14171;SDS011;7165;52.388;4.928;2022-12-28T15:51:37;7.35;;;4.25;;
14171;SDS011;7165;52.388;4.928;2022-12-28T15:54:04;9.95;;;5.22;;
14171;SDS011;7165;52.388;4.928;2022-12-28T15:56:32;11.57;;;4.65;;
14171;SDS011;7165;52.388;4.928;2022-12-28T15:59:00;5.93;;;4.38;;
14171;SDS011;7165;52.388;4.928;2022-12-28T16:01:28;4.97;;;4.28;;
14171;SDS011;7165;52.388;4.928;2022-12-28T16:03:58;6.35;;;5.15;;